Time;durP1;ratioP1;P1;durP2;ratioP2;P2;SDS_P1;SDS_P2;PMS_P1;PMS_P2;Temp;Humidity;BMP_temperature;BMP_pressure;BME280_temperature;BME280_humidity;BME280_pressure;Samples;Min_cycle;Max_cycle;Signal;HPM_P1;HPM_P2
2023/08/10 00:01:59;;;;;;;3.70;1.57;;;;;;;14.73;87.70;101834.06;6130144;28;20322;-67
2023/08/10 00:05:20;;;;;;;3.73;3.00;;;;;;;14.93;88.00;101837.69;6129565;28;20235;-67
2023/08/10 00:08:43;;;;;;;3.10;2.20;;;;;;;15.14;87.47;101835.69;6128951;28;20240;-67
2023/08/10 00:12:04;;;;;;;11.27;2.40;;;;;;;14.98;87.39;101840.81;6128786;28;20605;-68
2023/08/10 00:15:25;;;;;;;3.23;2.33;;;;;;;14.89;86.93;101842.53;6131673;28;20266;-68
2023/08/10 00:18:46;;;;;;;4.97;1.80;;;;;;;14.90;87.25;101844.22;6128065;28;20497;-68
2023/08/10 00:22:07;;;;;;;3.57;1.87;;;;;;;14.74;87.74;101838.50;6118610;28;20522;-67
2023/08/10 00:25:30;;;;;;;3.87;1.73;;;;;;;14.74;88.07;101838.50;6119597;28;20322;-67
2023/08/10 00:28:51;;;;;;;4.63;2.60;;;;;;;14.77;88.08;101842.78;6126642;28;20255;-68
2023/08/10 00:32:12;;;;;;;3.73;1.80;;;;;;;14.78;87.69;101842.66;6122424;28;20227;-67
2023/08/10 00:35:34;;;;;;;6.23;2.27;;;;;;;14.84;87.82;101842.09;6127655;28;20329;-67
2023/08/10 00:38:55;;;;;;;4.77;1.60;;;;;;;14.96;87.07;101853.66;6126061;28;20226;-67
2023/08/10 00:42:17;;;;;;;2.87;1.80;;;;;;;14.85;87.20;101842.94;6123680;28;20277;-68
2023/08/10 00:45:39;;;;;;;6.10;1.87;;;;;;;14.77;86.68;101837.38;6118088;28;20263;-68
2023/08/10 00:49:00;;;;;;;3.27;1.40;;;;;;;14.82;87.15;101852.22;6124853;28;20251;-67
2023/08/10 00:52:21;;;;;;;3.23;1.90;;;;;;;14.79;87.28;101844.34;6118107;28;20235;-67
2023/08/10 00:55:43;;;;;;;3.13;1.70;;;;;;;14.80;87.38;101850.66;6135122;28;20239;-67
2023/08/10 00:59:06;;;;;;;4.00;1.87;;;;;;;14.84;87.53;101847.53;6124323;28;20224;-67
2023/08/10 01:02:28;;;;;;;6.63;2.40;;;;;;;14.74;87.60;101848.50;6118846;28;20347;-68
2023/08/10 01:05:58;;;;;;;9.10;3.87;;;;;;;14.84;87.48;101846.66;6137477;28;20238;-68
2023/08/10 01:09:28;;;;;;;6.37;2.97;;;;;;;14.78;87.68;101850.78;6122803;28;20232;-68
2023/08/10 01:12:54;;;;;;;10.00;3.40;;;;;;;14.68;87.97;101855.34;6125850;28;20230;-67
2023/08/10 01:16:17;;;;;;;3.97;3.40;;;;;;;14.62;87.94;101855.91;6119974;28;20235;-68
2023/08/10 01:19:41;;;;;;;3.37;2.57;;;;;;;14.56;88.34;101859.13;6121453;28;20250;-67
2023/08/10 01:23:13;;;;;;;3.33;2.50;;;;;;;14.60;88.26;101857.91;6139582;28;20586;-68
2023/08/10 01:26:36;;;;;;;3.10;2.23;;;;;;;14.47;88.74;101870.84;6122556;28;20321;-66
2023/08/10 01:29:58;;;;;;;5.47;2.63;;;;;;;14.49;88.61;101873.41;6126253;28;20334;-67
2023/08/10 01:33:19;;;;;;;4.30;1.90;;;;;;;14.65;87.99;101869.19;6122420;28;20390;-68
2023/08/10 01:36:43;;;;;;;2.43;2.23;;;;;;;14.78;87.57;101877.94;6123945;28;20261;-67
2023/08/10 01:40:07;;;;;;;3.03;2.23;;;;;;;14.83;87.21;101870.22;6127453;28;20235;-67
2023/08/10 01:43:30;;;;;;;6.60;2.13;;;;;;;14.87;86.43;101874.38;6127173;28;20318;-68
2023/08/10 01:46:54;;;;;;;2.83;1.93;;;;;;;14.88;87.03;101875.22;6122089;28;20257;-68
2023/08/10 01:50:19;;;;;;;6.83;2.40;;;;;;;15.04;86.11;101875.56;6120122;28;20617;-67
2023/08/10 01:53:41;;;;;;;5.00;1.97;;;;;;;14.89;85.51;101868.81;6118564;28;20329;-67
2023/08/10 01:57:02;;;;;;;3.97;2.10;;;;;;;14.84;86.21;101871.09;6119468;28;20568;-68
2023/08/10 02:00:25;;;;;;;2.97;1.67;;;;;;;14.65;85.87;101866.47;6116757;28;21405;-67
2023/08/10 02:03:46;;;;;;;4.13;1.40;;;;;;;14.78;85.81;101864.38;6133991;28;20236;-67
2023/08/10 02:07:07;;;;;;;4.13;2.00;;;;;;;14.93;85.95;101870.25;6119105;28;20231;-67
2023/08/10 02:10:29;;;;;;;2.30;1.47;;;;;;;14.85;85.83;101867.38;6127956;28;20231;-67
2023/08/10 02:13:50;;;;;;;5.80;2.37;;;;;;;14.88;85.41;101876.09;6124351;28;20259;-66
2023/08/10 02:17:13;;;;;;;3.17;1.70;;;;;;;14.85;85.68;101872.81;6139331;28;20240;-67
2023/08/10 02:20:34;;;;;;;3.37;2.23;;;;;;;14.76;85.39;101877.22;6123483;28;20238;-68
2023/08/10 02:23:55;;;;;;;2.83;2.13;;;;;;;14.50;86.21;101884.13;6127289;28;20290;-68
2023/08/10 02:27:16;;;;;;;2.80;1.70;;;;;;;14.54;86.29;101877.41;6102686;28;20627;-67
2023/08/10 02:30:38;;;;;;;3.80;1.87;;;;;;;14.46;86.17;101879.13;6142519;28;20667;-67
2023/08/10 02:34:00;;;;;;;2.37;1.50;;;;;;;14.27;86.56;101882.53;6134637;28;20235;-68
2023/08/10 02:37:21;;;;;;;6.33;2.07;;;;;;;14.29;87.04;101876.03;6127641;28;20231;-68
2023/08/10 02:40:42;;;;;;;12.33;2.73;;;;;;;14.25;87.05;101873.69;6129953;28;20600;-67
2023/08/10 02:44:03;;;;;;;2.33;1.70;;;;;;;14.29;86.68;101870.59;6133355;28;20239;-67
2023/08/10 02:47:23;;;;;;;5.00;1.60;;;;;;;14.35;86.34;101880.06;6124593;28;21210;-67
2023/08/10 02:50:45;;;;;;;3.07;2.30;;;;;;;14.42;86.19;101878.50;6130283;28;20227;-68
2023/08/10 02:54:06;;;;;;;3.43;1.50;;;;;;;14.37;86.11;101878.09;6125978;28;20239;-68
2023/08/10 02:57:27;;;;;;;7.37;2.60;;;;;;;14.46;85.92;101876.41;6126094;28;20231;-68
2023/08/10 03:00:48;;;;;;;8.53;2.50;;;;;;;14.39;85.75;101889.66;6127001;28;20551;-67
2023/08/10 03:04:09;;;;;;;2.70;1.80;;;;;;;14.33;85.55;101892.91;6127986;28;20239;-68
2023/08/10 03:07:31;;;;;;;3.13;1.57;;;;;;;14.43;85.34;101886.50;6126628;28;20230;-67
2023/08/10 03:10:52;;;;;;;1.73;1.50;;;;;;;14.43;85.19;101883.78;6129019;28;20228;-68
2023/08/10 03:14:14;;;;;;;3.23;1.57;;;;;;;14.25;85.38;101888.13;6128593;28;20326;-67
2023/08/10 03:17:35;;;;;;;3.23;2.23;;;;;;;14.37;85.42;101892.47;6128062;28;20258;-67
2023/08/10 03:20:57;;;;;;;6.90;1.97;;;;;;;14.34;85.05;101886.47;6130344;28;20227;-66
2023/08/10 03:24:19;;;;;;;3.57;1.83;;;;;;;14.21;85.01;101893.94;6125356;28;20238;-67
2023/08/10 03:27:40;;;;;;;4.40;1.70;;;;;;;14.21;85.27;101880.38;6125149;28;20227;-67
2023/08/10 03:31:04;;;;;;;2.67;1.60;;;;;;;14.18;85.23;101889.66;6124062;28;20239;-67
2023/08/10 03:34:28;;;;;;;2.33;1.33;;;;;;;14.09;85.39;101895.00;6123828;28;20244;-68
2023/08/10 03:37:49;;;;;;;3.53;1.70;;;;;;;14.02;85.63;101891.09;6124510;28;20231;-67
2023/08/10 03:41:14;;;;;;;4.67;1.97;;;;;;;14.04;85.57;101884.56;6134781;28;20235;-67
2023/08/10 03:44:35;;;;;;;7.40;2.17;;;;;;;14.14;85.72;101890.91;6128291;28;20321;-67
2023/08/10 03:47:56;;;;;;;2.50;1.73;;;;;;;14.27;85.59;101896.09;6124333;28;20267;-67
2023/08/10 03:51:17;;;;;;;4.90;2.70;;;;;;;14.38;84.88;101902.34;6144902;28;20543;-67
2023/08/10 03:54:38;;;;;;;2.90;1.57;;;;;;;14.39;84.47;101895.91;6135495;28;20243;-66
2023/08/10 03:58:00;;;;;;;4.30;1.70;;;;;;;14.37;84.29;101897.91;6101385;28;20231;-66
2023/08/10 04:01:22;;;;;;;7.43;2.57;;;;;;;14.35;83.92;101899.91;6122849;28;20228;-67
2023/08/10 04:04:43;;;;;;;10.17;2.07;;;;;;;14.25;84.34;101896.25;6132751;28;20834;-67
2023/08/10 04:08:04;;;;;;;4.53;3.10;;;;;;;14.21;84.43;101889.38;6124000;28;20552;-66
2023/08/10 04:11:25;;;;;;;14.93;2.17;;;;;;;14.16;84.74;101890.78;6127629;28;20236;-66
2023/08/10 04:14:47;;;;;;;3.70;1.53;;;;;;;14.28;84.68;101887.88;6143636;28;20231;-68
2023/08/10 04:18:09;;;;;;;4.30;2.37;;;;;;;14.23;84.64;101887.38;6124822;28;20326;-66
2023/08/10 04:21:30;;;;;;;3.30;1.80;;;;;;;14.21;84.48;101900.22;6127969;28;20564;-67
2023/08/10 04:24:51;;;;;;;5.90;2.07;;;;;;;14.20;84.14;101903.94;6122884;28;20239;-66
2023/08/10 04:28:13;;;;;;;8.07;2.27;;;;;;;14.42;84.45;101908.34;6125894;28;20668;-67
2023/08/10 04:31:34;;;;;;;2.73;2.10;;;;;;;14.38;84.40;101917.75;6128048;28;20254;-67
2023/08/10 04:34:55;;;;;;;2.17;1.77;;;;;;;14.41;84.02;101904.78;6124479;28;20239;-67
2023/08/10 04:38:16;;;;;;;6.83;2.57;;;;;;;14.40;83.93;101916.63;6125542;28;20234;-66
2023/08/10 04:41:37;;;;;;;6.13;2.90;;;;;;;14.36;83.89;101922.47;6125638;28;20231;-67
2023/08/10 04:44:58;;;;;;;3.03;2.40;;;;;;;14.64;84.08;101920.88;6126546;28;20591;-67
2023/08/10 04:48:21;;;;;;;2.40;1.70;;;;;;;14.64;83.68;101927.19;6124148;28;20239;-67
2023/08/10 04:51:42;;;;;;;4.50;1.63;;;;;;;14.70;83.65;101923.06;6127711;28;20243;-67
2023/08/10 04:55:04;;;;;;;3.27;2.47;;;;;;;14.69;83.08;101924.91;6124721;28;20273;-66
2023/08/10 04:58:25;;;;;;;9.83;2.83;;;;;;;14.63;83.22;101927.31;6123675;28;20236;-67
2023/08/10 05:01:46;;;;;;;2.70;2.33;;;;;;;14.56;83.42;101931.56;6117909;28;20227;-67
2023/08/10 05:05:10;;;;;;;3.13;2.27;;;;;;;14.41;83.60;101933.78;6125092;28;20346;-67
2023/08/10 05:08:31;;;;;;;2.13;1.50;;;;;;;14.43;83.73;101928.22;6117943;28;20228;-66
2023/08/10 05:11:52;;;;;;;6.70;2.80;;;;;;;14.48;84.14;101931.41;6127531;28;20341;-66
2023/08/10 05:15:13;;;;;;;3.87;2.20;;;;;;;14.63;83.85;101930.88;6133618;28;20330;-67
2023/08/10 05:18:34;;;;;;;2.23;1.60;;;;;;;14.52;83.99;101940.97;6125586;28;20231;-67
2023/08/10 05:21:57;;;;;;;8.67;2.53;;;;;;;14.57;84.15;101942.28;6127342;28;20635;-67
2023/08/10 05:25:18;;;;;;;7.10;2.37;;;;;;;14.49;84.21;101942.09;6131923;28;20318;-68
2023/08/10 05:28:38;;;;;;;1.97;1.60;;;;;;;14.71;84.23;101941.91;6125162;28;20644;-68
2023/08/10 05:31:59;;;;;;;4.83;1.50;;;;;;;14.68;83.89;101947.63;6127175;28;20259;-67
2023/08/10 05:35:21;;;;;;;2.63;1.50;;;;;;;14.77;84.02;101948.66;6125012;28;20247;-68
2023/08/10 05:38:43;;;;;;;2.67;1.73;;;;;;;14.73;83.83;101955.34;6126295;28;20231;-66
2023/08/10 05:42:04;;;;;;;4.47;1.40;;;;;;;14.66;83.94;101955.06;6123416;28;20362;-66
2023/08/10 05:45:25;;;;;;;5.93;2.10;;;;;;;14.81;83.74;101947.41;6126672;28;20239;-67
2023/08/10 05:48:48;;;;;;;7.77;2.07;;;;;;;14.84;84.05;101955.25;6126972;28;20322;-66
2023/08/10 05:52:09;;;;;;;4.63;1.80;;;;;;;14.75;84.09;101951.50;6131360;28;20669;-67
2023/08/10 05:55:32;;;;;;;2.10;1.57;;;;;;;14.93;84.29;101963.44;6128113;28;20600;-67
2023/08/10 05:58:52;;;;;;;5.10;2.37;;;;;;;14.95;84.16;101960.59;6129911;28;20306;-67
2023/08/10 06:02:14;;;;;;;6.03;2.90;;;;;;;15.04;83.98;101957.06;6132907;28;20238;-68
2023/08/10 06:05:35;;;;;;;4.13;2.13;;;;;;;15.27;83.81;101950.34;6130523;28;20231;-67
2023/08/10 06:08:56;;;;;;;12.50;3.13;;;;;;;15.32;82.77;101958.09;6125539;28;20598;-66
2023/08/10 06:12:18;;;;;;;5.87;3.07;;;;;;;15.53;82.06;101956.16;6126451;28;20651;-66
2023/08/10 06:15:39;;;;;;;5.17;2.33;;;;;;;15.53;82.07;101962.47;6129509;28;20992;-65
2023/08/10 06:19:00;;;;;;;4.57;2.20;;;;;;;15.92;81.84;101963.31;6124020;28;20258;-67
2023/08/10 06:22:21;;;;;;;5.63;1.70;;;;;;;15.90;81.60;101965.31;6127044;28;20235;-66
2023/08/10 06:25:42;;;;;;;4.63;1.80;;;;;;;16.09;81.36;101969.88;6123813;28;20685;-66
2023/08/10 06:29:05;;;;;;;7.27;2.00;;;;;;;16.28;80.90;101970.72;6121669;28;20223;-68
2023/08/10 06:32:26;;;;;;;1.93;1.50;;;;;;;15.92;80.40;101969.63;6121951;28;20239;-68
2023/08/10 06:35:47;;;;;;;3.60;1.80;;;;;;;15.93;80.20;101971.34;6121245;28;20310;-67
2023/08/10 06:39:10;;;;;;;4.70;2.03;;;;;;;16.26;80.56;101977.31;6126270;28;20257;-67
2023/08/10 06:42:31;;;;;;;4.10;2.43;;;;;;;16.22;79.90;101970.44;6137257;28;20553;-68
2023/08/10 06:45:57;;;;;;;2.50;1.40;;;;;;;16.30;79.78;101970.56;6131293;28;20235;-68
2023/08/10 06:49:21;;;;;;;2.60;1.73;;;;;;;16.50;79.17;101962.25;6127274;28;20255;-66
2023/08/10 06:52:42;;;;;;;5.93;2.27;;;;;;;16.58;79.00;101965.09;6119030;28;20678;-68
2023/08/10 06:56:03;;;;;;;3.27;1.67;;;;;;;16.60;78.30;101965.81;6128344;28;20235;-67
2023/08/10 06:59:24;;;;;;;5.87;1.60;;;;;;;16.64;77.53;101971.81;6126769;28;20235;-67
2023/08/10 07:02:50;;;;;;;2.43;1.47;;;;;;;16.59;77.50;101972.25;6121455;28;20231;-68
2023/08/10 07:06:11;;;;;;;3.80;1.50;;;;;;;16.72;76.89;101978.25;6126141;28;20235;-67
2023/08/10 07:09:32;;;;;;;7.40;1.70;;;;;;;16.80;77.24;101980.22;6132583;28;20534;-67
2023/08/10 07:12:53;;;;;;;3.90;1.60;;;;;;;16.99;76.11;101982.00;6126104;28;20321;-66
2023/08/10 07:16:14;;;;;;;4.28;1.77;;;;;;;17.01;75.84;101989.00;6131251;28;20228;-68
2023/08/10 07:19:36;;;;;;;1.87;1.13;;;;;;;17.26;75.54;101982.00;6129474;28;20597;-68
2023/08/10 07:22:57;;;;;;;2.53;1.73;;;;;;;17.20;74.20;101986.19;6123402;28;20223;-68
2023/08/10 07:26:19;;;;;;;3.30;1.80;;;;;;;17.64;74.27;101987.25;6132961;28;20541;-67
2023/08/10 07:29:40;;;;;;;3.63;1.67;;;;;;;17.58;72.58;101989.72;6131556;28;20259;-68
2023/08/10 07:33:00;;;;;;;4.07;1.80;;;;;;;17.31;71.35;101985.97;6132919;28;20235;-67
2023/08/10 07:36:23;;;;;;;6.47;2.50;;;;;;;17.34;71.23;101992.97;6120692;28;20227;-67
2023/08/10 07:39:44;;;;;;;4.17;1.70;;;;;;;17.48;70.72;101987.88;6124487;28;20235;-67
2023/08/10 07:43:05;;;;;;;6.20;1.57;;;;;;;17.58;70.48;101989.72;6130799;28;20909;-68
2023/08/10 07:46:26;;;;;;;2.47;1.43;;;;;;;17.58;70.82;101989.72;6126030;28;20239;-68
2023/08/10 07:49:47;;;;;;;6.13;1.77;;;;;;;17.53;70.44;101988.31;6129484;28;20219;-69
2023/08/10 07:53:09;;;;;;;1.80;1.23;;;;;;;17.68;69.86;101998.69;6123903;28;20231;-67
2023/08/10 07:56:30;;;;;;;2.55;1.52;;;;;;;17.40;70.57;101995.09;6125591;28;20235;-67
2023/08/10 07:59:51;;;;;;;1.90;1.75;;;;;;;17.96;69.74;101993.00;6131401;28;20231;-69
2023/08/10 08:03:12;;;;;;;1.37;0.83;;;;;;;18.27;69.20;101991.56;6117077;28;20814;-67
2023/08/10 08:06:35;;;;;;;2.05;1.10;;;;;;;18.43;68.21;101993.56;6130343;28;20219;-67
2023/08/10 08:09:57;;;;;;;3.22;1.40;;;;;;;18.46;66.29;101997.88;6124948;28;20239;-66
2023/08/10 08:13:18;;;;;;;4.05;1.60;;;;;;;18.51;66.49;102001.84;6116463;28;20235;-68
2023/08/10 08:16:39;;;;;;;3.72;2.05;;;;;;;18.36;65.63;101998.81;6116802;28;20317;-67
2023/08/10 08:20:00;;;;;;;3.83;1.52;;;;;;;17.99;64.80;102002.75;6130317;28;20235;-68
2023/08/10 08:23:20;;;;;;;1.40;0.93;;;;;;;18.26;63.98;102005.38;6128449;28;20520;-68
2023/08/10 08:26:43;;;;;;;1.95;1.40;;;;;;;18.28;64.26;101997.88;6131342;28;20247;-69
2023/08/10 08:30:04;;;;;;;1.55;1.42;;;;;;;18.11;63.10;102001.47;6125088;28;20239;-67
2023/08/10 08:33:25;;;;;;;4.13;2.08;;;;;;;18.23;63.84;102001.06;6124144;28;20246;-66
2023/08/10 08:36:47;;;;;;;2.57;1.17;;;;;;;18.21;64.04;102000.38;6119444;28;20236;-67
2023/08/10 08:40:09;;;;;;;1.63;0.97;;;;;;;18.06;63.93;101999.25;6123235;28;20254;-69
2023/08/10 08:43:32;;;;;;;7.57;1.93;;;;;;;18.13;64.22;102011.22;6122897;28;21072;-68
2023/08/10 08:46:53;;;;;;;4.43;1.80;;;;;;;18.53;64.03;102009.88;6126863;28;20298;-68
2023/08/10 08:50:15;;;;;;;2.20;1.33;;;;;;;18.91;63.13;102013.03;6118737;28;20317;-67
2023/08/10 08:53:40;;;;;;;5.63;1.90;;;;;;;18.93;61.59;102005.53;6129851;28;20313;-68
2023/08/10 08:57:01;;;;;;;6.60;1.00;;;;;;;18.64;60.76;102013.22;6122462;28;20827;-69
2023/08/10 09:00:23;;;;;;;1.60;1.40;;;;;;;19.21;59.74;102008.91;6126377;28;20251;-68
2023/08/10 09:03:45;;;;;;;3.22;1.15;;;;;;;19.23;59.25;102012.34;6127519;28;20314;-68
2023/08/10 09:07:07;;;;;;;4.05;1.45;;;;;;;19.41;60.07;102007.66;6124149;28;20617;-68
2023/08/10 09:10:29;;;;;;;1.75;1.15;;;;;;;19.52;60.16;102014.69;6131458;28;20234;-68
2023/08/10 09:14:13;;;;;;;2.83;1.33;;;;;;;19.05;57.81;101996.03;6129204;28;20262;-68
2023/08/10 09:17:40;;;;;;;3.97;2.05;;;;;;;19.06;59.38;102005.94;6125097;28;20232;-68
2023/08/10 09:21:13;;;;;;;3.92;1.48;;;;;;;19.65;58.63;102004.97;6126160;28;20235;-68
2023/08/10 09:24:34;;;;;;;3.92;1.40;;;;;;;19.21;57.81;102008.06;6128980;28;20601;-68
2023/08/10 09:27:55;;;;;;;3.17;0.98;;;;;;;19.53;58.31;102005.44;6125911;28;20239;-68
2023/08/10 09:31:24;;;;;;;6.82;2.65;;;;;;;19.76;56.68;101993.72;6128181;28;20592;-68
2023/08/10 09:34:46;;;;;;;3.45;1.00;;;;;;;19.51;56.59;101997.41;6124107;28;20226;-67
2023/08/10 09:38:07;;;;;;;2.65;1.40;;;;;;;20.04;56.33;101998.88;6120947;28;20251;-68
2023/08/10 09:41:28;;;;;;;2.53;1.77;;;;;;;20.04;55.54;102005.22;6129182;28;20230;-67
2023/08/10 09:44:50;;;;;;;2.20;1.40;;;;;;;19.41;55.13;102004.06;6124585;28;20234;-69
2023/08/10 09:48:12;;;;;;;3.67;2.85;;;;;;;19.10;55.25;101996.41;6124163;28;20239;-67
2023/08/10 09:51:39;;;;;;;3.65;1.50;;;;;;;19.53;55.81;101999.97;6123375;28;20235;-67
2023/08/10 09:54:59;;;;;;;12.75;1.27;;;;;;;20.26;55.24;101998.22;6120878;28;20581;-68
2023/08/10 09:58:20;;;;;;;3.35;1.98;;;;;;;20.84;53.75;101998.00;6124174;28;20243;-67
2023/08/10 10:01:42;;;;;;;4.78;1.30;;;;;;;20.84;55.77;102003.47;6118012;28;20652;-67
2023/08/10 10:05:06;;;;;;;3.25;1.00;;;;;;;19.49;56.41;102002.19;6123732;28;20255;-68
2023/08/10 10:08:29;;;;;;;5.22;1.92;;;;;;;19.49;58.29;102013.16;6119381;28;20259;-66
2023/08/10 10:11:51;;;;;;;10.50;2.25;;;;;;;19.67;56.82;102013.03;6117708;28;20228;-67
2023/08/10 10:15:12;;;;;;;14.35;1.85;;;;;;;19.52;56.61;102006.50;6110712;28;20754;-67
2023/08/10 10:18:35;;;;;;;3.47;1.60;;;;;;;19.56;55.95;102005.13;6123278;28;20236;-67
2023/08/10 10:21:56;;;;;;;5.07;1.67;;;;;;;20.07;55.63;102006.78;6113629;28;20235;-67
2023/08/10 10:25:20;;;;;;;4.35;1.75;;;;;;;20.60;55.20;101999.75;6119778;28;20231;-67
2023/08/10 10:28:41;;;;;;;2.13;1.30;;;;;;;20.32;55.65;101998.41;6122502;28;20267;-66
2023/08/10 10:32:07;;;;;;;4.50;1.08;;;;;;;20.76;55.54;102004.34;6113563;28;20602;-68
2023/08/10 10:35:33;;;;;;;6.13;1.63;;;;;;;20.97;54.27;102007.38;6122169;28;20243;-67
2023/08/10 10:39:03;;;;;;;1.75;1.45;;;;;;;20.88;54.35;101991.13;6120099;28;20235;-67
2023/08/10 10:42:26;;;;;;;2.63;1.42;;;;;;;21.23;53.26;102001.66;6119353;28;20774;-68
2023/08/10 10:45:48;;;;;;;2.05;1.92;;;;;;;20.72;54.93;102002.97;6125644;28;20271;-67
2023/08/10 10:49:13;;;;;;;5.20;1.20;;;;;;;20.11;55.67;102005.41;6122843;28;20562;-67
2023/08/10 10:52:37;;;;;;;3.10;1.88;;;;;;;19.73;57.13;102004.97;6120282;28;20579;-67
2023/08/10 10:55:58;;;;;;;4.15;2.00;;;;;;;20.62;56.89;102005.06;6123652;28;20341;-66
2023/08/10 10:59:21;;;;;;;2.63;2.00;;;;;;;20.46;57.42;102007.81;6118587;28;20231;-68
2023/08/10 11:02:42;;;;;;;1.80;1.70;;;;;;;20.91;55.55;102008.06;6114786;28;20239;-67
2023/08/10 11:06:03;;;;;;;3.40;1.35;;;;;;;20.87;55.40;101997.63;6108222;28;20243;-66
2023/08/10 11:09:24;;;;;;;2.53;1.23;;;;;;;21.20;54.54;102000.13;6118528;28;20235;-66
2023/08/10 11:12:48;;;;;;;2.72;1.48;;;;;;;21.55;54.06;101982.25;6129943;28;20239;-68
2023/08/10 11:16:11;;;;;;;7.50;1.52;;;;;;;21.30;52.81;101981.53;6126916;28;20243;-68
2023/08/10 11:19:33;;;;;;;3.35;1.23;;;;;;;20.60;53.95;101988.78;6119816;28;20239;-67
2023/08/10 11:22:54;;;;;;;2.78;1.88;;;;;;;20.58;53.72;101984.50;6111708;28;20241;-67
2023/08/10 11:26:16;;;;;;;3.78;1.95;;;;;;;20.53;54.01;101984.16;6109263;28;20239;-68
2023/08/10 11:29:37;;;;;;;3.75;1.38;;;;;;;20.91;53.81;101979.78;6124297;28;20254;-66
2023/08/10 11:33:00;;;;;;;2.17;1.17;;;;;;;20.13;55.00;101974.06;6110768;28;20239;-68
2023/08/10 11:36:23;;;;;;;4.57;1.38;;;;;;;20.49;54.93;101975.44;6118153;28;20263;-68
2023/08/10 11:39:44;;;;;;;3.25;1.20;;;;;;;20.65;54.51;101977.31;6114056;28;20227;-69
2023/08/10 11:43:08;;;;;;;2.08;1.10;;;;;;;21.56;53.88;101972.16;6125724;28;20235;-68
2023/08/10 11:46:29;;;;;;;4.00;1.63;;;;;;;21.34;55.44;101973.84;6125070;28;20236;-66
2023/08/10 11:49:51;;;;;;;4.72;1.63;;;;;;;21.37;55.70;101979.81;6131635;28;20495;-67
2023/08/10 11:53:14;;;;;;;3.33;1.98;;;;;;;21.60;55.13;101973.50;6121608;28;20227;-65
2023/08/10 11:56:34;;;;;;;5.40;2.00;;;;;;;21.84;54.74;101967.88;6119969;28;20236;-67
2023/08/10 11:59:55;;;;;;;3.85;1.38;;;;;;;21.68;53.44;101974.28;6132451;28;20235;-65
2023/08/10 12:03:18;;;;;;;2.75;1.60;;;;;;;22.01;53.20;101964.81;6124865;28;20223;-64
2023/08/10 12:06:41;;;;;;;2.10;1.15;;;;;;;21.69;53.13;101964.19;6127618;28;20231;-67
2023/08/10 12:10:03;;;;;;;5.30;2.22;;;;;;;21.09;53.28;101964.84;6129426;28;20239;-66
2023/08/10 12:13:24;;;;;;;2.85;1.58;;;;;;;21.27;53.49;101967.34;6131094;28;20227;-66
2023/08/10 12:16:45;;;;;;;6.15;1.73;;;;;;;21.77;52.74;101970.47;6128998;28;20236;-66
2023/08/10 12:20:07;;;;;;;2.72;1.25;;;;;;;21.92;51.59;101960.44;6125669;28;20648;-67
2023/08/10 12:23:29;;;;;;;2.00;1.40;;;;;;;24.69;46.37;101947.25;6121779;28;20242;-67
2023/08/10 12:26:52;;;;;;;1.95;1.50;;;;;;;26.65;42.33;101948.69;6123282;28;20317;-68
2023/08/10 12:30:14;;;;;;;3.53;1.48;;;;;;;25.44;44.04;101944.50;6131241;28;20239;-65
2023/08/10 12:33:35;;;;;;;1.67;1.38;;;;;;;26.79;41.73;101941.22;6118775;28;20235;-67
2023/08/10 12:36:56;;;;;;;1.73;1.27;;;;;;;26.63;40.80;101950.81;6126393;28;20231;-67
2023/08/10 12:40:18;;;;;;;2.30;1.00;;;;;;;24.39;43.10;101965.91;6128667;28;20235;-68
2023/08/10 12:43:40;;;;;;;2.97;1.00;;;;;;;22.71;48.43;101978.28;6115372;28;20315;-68
2023/08/10 12:47:01;;;;;;;3.60;1.45;;;;;;;25.47;44.62;101964.25;6120027;28;20785;-67
2023/08/10 12:50:23;;;;;;;3.42;1.20;;;;;;;26.67;39.22;101957.63;6128291;28;20239;-66
2023/08/10 12:53:44;;;;;;;3.15;0.93;;;;;;;26.42;39.27;101961.25;6128417;28;20239;-66
2023/08/10 12:57:06;;;;;;;2.63;1.00;;;;;;;24.45;42.76;101967.84;6119826;28;20227;-65
2023/08/10 13:00:27;;;;;;;2.30;1.45;;;;;;;23.41;46.04;101962.13;6129850;28;20230;-66
2023/08/10 13:03:48;;;;;;;2.63;0.73;;;;;;;27.49;40.40;101957.00;6131183;28;20721;-68
2023/08/10 13:07:09;;;;;;;3.22;1.70;;;;;;;29.20;36.86;101958.16;6121206;28;20236;-67
2023/08/10 13:10:30;;;;;;;3.95;1.30;;;;;;;26.01;40.45;101962.28;6122623;28;20331;-66
2023/08/10 13:13:52;;;;;;;2.10;1.38;;;;;;;23.67;44.98;101968.81;6130368;28;20231;-66
2023/08/10 13:17:13;;;;;;;6.57;1.40;;;;;;;26.41;40.17;101965.09;6125728;28;20247;-67
2023/08/10 13:20:34;;;;;;;2.80;1.33;;;;;;;23.56;44.26;101966.56;6118603;28;20234;-67
2023/08/10 13:23:55;;;;;;;1.00;0.82;;;;;;;24.14;43.18;101961.88;6121463;28;20311;-67
2023/08/10 13:27:16;;;;;;;5.03;1.73;;;;;;;24.56;42.99;101962.66;6132208;28;20227;-67
2023/08/10 13:30:38;;;;;;;1.05;0.65;;;;;;;25.65;40.55;101971.97;6130638;28;20551;-66
2023/08/10 13:33:59;;;;;;;2.38;1.23;;;;;;;23.46;44.69;101971.53;6126482;28;20529;-65
2023/08/10 13:37:19;;;;;;;3.55;0.85;;;;;;;24.53;45.10;101967.75;6126351;28;20239;-68
2023/08/10 13:40:40;;;;;;;4.55;1.65;;;;;;;24.86;43.30;101967.97;6125048;28;20235;-68
2023/08/10 13:44:01;;;;;;;0.93;0.80;;;;;;;23.81;44.77;101970.66;6126428;28;20539;-67
2023/08/10 13:47:23;;;;;;;1.98;1.13;;;;;;;26.51;41.79;101966.38;6120908;28;20231;-68
2023/08/10 13:50:44;;;;;;;0.95;0.80;;;;;;;25.72;43.42;101959.06;6121518;28;20252;-68
2023/08/10 13:54:05;;;;;;;4.65;1.25;;;;;;;24.10;45.94;101964.19;6122293;28;20235;-67
2023/08/10 13:57:26;;;;;;;1.63;1.05;;;;;;;24.97;45.66;101970.19;6123794;28;20621;-68
2023/08/10 14:00:47;;;;;;;5.57;3.05;;;;;;;24.29;46.15;101969.03;6124389;28;20306;-67
2023/08/10 14:04:10;;;;;;;1.35;0.80;;;;;;;22.83;49.10;101971.25;6121414;28;20235;-67
2023/08/10 14:07:31;;;;;;;3.70;1.95;;;;;;;25.30;45.07;101960.97;6122632;28;20230;-69
2023/08/10 14:10:52;;;;;;;1.48;0.85;;;;;;;24.38;46.22;101951.28;6130684;28;20231;-67
2023/08/10 14:14:14;;;;;;;2.22;1.08;;;;;;;25.99;43.47;101960.81;6137864;28;20587;-67
2023/08/10 14:17:35;;;;;;;3.05;1.63;;;;;;;24.37;45.89;101962.50;6133090;28;20230;-68
2023/08/10 14:20:57;;;;;;;5.80;0.95;;;;;;;23.27;48.65;101957.47;6126227;28;20228;-68
2023/08/10 14:24:18;;;;;;;2.25;1.30;;;;;;;25.06;45.87;101961.50;6136650;28;20593;-68
2023/08/10 14:27:39;;;;;;;1.70;1.05;;;;;;;26.26;44.52;101970.00;6126934;28;20929;-68
2023/08/10 14:31:01;;;;;;;1.92;1.33;;;;;;;26.98;44.32;101961.63;6133028;28;20235;-68
2023/08/10 14:34:21;;;;;;;3.25;1.65;;;;;;;24.49;45.33;101964.50;6119495;28;20228;-68
2023/08/10 14:37:44;;;;;;;3.30;0.98;;;;;;;23.43;47.75;101974.66;6118358;28;20681;-68
2023/08/10 14:41:05;;;;;;;2.30;0.88;;;;;;;23.24;48.26;101968.88;6115329;28;20239;-68
2023/08/10 14:44:26;;;;;;;5.35;1.23;;;;;;;23.03;48.93;101978.75;6131178;28;20599;-67
2023/08/10 14:47:57;;;;;;;2.38;1.10;;;;;;;24.51;47.09;101967.91;6116530;28;20334;-67
2023/08/10 14:51:18;;;;;;;5.68;1.30;;;;;;;24.43;46.01;101970.81;6128194;28;20238;-67
2023/08/10 14:54:40;;;;;;;3.00;1.20;;;;;;;24.37;45.63;101970.75;6134328;28;20609;-68
2023/08/10 14:58:01;;;;;;;8.00;1.75;;;;;;;24.82;45.50;101973.06;6125436;28;20549;-67
2023/08/10 15:01:23;;;;;;;3.17;1.30;;;;;;;23.21;44.10;101970.13;6122723;28;20779;-66
2023/08/10 15:04:43;;;;;;;2.50;0.88;;;;;;;24.08;45.24;101984.72;6125814;28;20327;-67
2023/08/10 15:08:06;;;;;;;3.00;1.40;;;;;;;24.19;43.73;101986.94;6129240;28;20584;-68
2023/08/10 15:11:28;;;;;;;2.60;0.90;;;;;;;23.85;42.41;101979.38;6129417;28;20227;-67
2023/08/10 15:14:50;;;;;;;3.63;1.58;;;;;;;24.81;42.07;101982.38;6121176;28;20314;-67
2023/08/10 15:18:10;;;;;;;2.97;1.20;;;;;;;25.12;44.04;101971.72;6112650;28;20247;-68
2023/08/10 15:21:31;;;;;;;1.40;1.13;;;;;;;25.50;43.79;101963.88;6127182;28;20231;-67
2023/08/10 15:24:52;;;;;;;8.50;1.23;;;;;;;24.67;43.14;101976.94;6127653;28;20717;-68
2023/08/10 15:28:15;;;;;;;2.17;0.93;;;;;;;24.36;42.55;101966.31;6124499;28;20240;-68
2023/08/10 15:31:35;;;;;;;3.17;1.10;;;;;;;25.02;42.99;101971.25;6128673;28;20234;-66
2023/08/10 15:34:57;;;;;;;1.10;1.00;;;;;;;25.17;41.71;101971.13;6120521;28;20232;-67
2023/08/10 15:38:18;;;;;;;1.98;0.93;;;;;;;25.14;41.32;101968.75;6119820;28;20235;-66